Elsmere, Delaware
Current Conditions -  °F | °C
As of 11:51 PM on Wednesday 22 Oct 2014 (Local Time) from KILG Reporting Station
Overcast Overcast  
Wind Chill: 53°   Ceiling: 4600
Heat Index: 53°   Visibility: 10mi
Dew Point: 47°   Wind: 20mph
Humidity: 80%   Direction: 320°NW
Pressure: 29.82"   Gusts: 25mph
Location:  39.7454°N, 75.5936°W
Report Text: KILG 230351Z 32017G22KT 10SM BKN046 OVC070 12/08 A2982 RMK AO2 PK WND 32026/0318 SLP097 T01170083
Loading
Personal Weather Stations






























Interactive Weather Map
Tropical Storm Tracking
New forecast layout! Learn more

10-Day Weather Forecast

Advertisements
Track Severe Weather on mobile